Time;durP1;ratioP1;P1;durP2;ratioP2;P2;SDS_P1;SDS_P2;PMS_P1;PMS_P2;Temp;Humidity;BMP_temperature;BMP_pressure;BME280_temperature;BME280_humidity;BME280_pressure;Samples;Min_cycle;Max_cycle;Signal;HPM_P1;HPM_P2
2023/07/25 00:00:41;;;;;;;8.15;4.03;;;;;;;19.27;89.96;95446.50;5103364;27;20135;-74
2023/07/25 00:03:08;;;;;;;5.97;3.95;;;;;;;19.27;88.98;95443.75;5105622;27;20066;-74
2023/07/25 00:05:35;;;;;;;7.38;4.05;;;;;;;19.25;88.97;95442.56;5091118;28;20050;-74
2023/07/25 00:08:02;;;;;;;9.27;4.05;;;;;;;19.24;89.47;95440.97;5097115;28;20047;-75
2023/07/25 00:10:28;;;;;;;7.63;4.35;;;;;;;19.24;89.57;95435.47;5104925;27;20503;-75
2023/07/25 00:12:56;;;;;;;8.27;4.05;;;;;;;19.21;89.34;95436.25;5111258;27;20054;-74
2023/07/25 00:15:22;;;;;;;7.53;4.20;;;;;;;19.15;90.37;95433.09;5110646;27;20410;-74
2023/07/25 00:17:50;;;;;;;8.15;4.18;;;;;;;19.16;90.88;95423.66;5101544;27;20050;-74
2023/07/25 00:20:16;;;;;;;7.57;4.13;;;;;;;19.16;91.26;95422.84;5102203;27;20051;-74
2023/07/25 00:22:43;;;;;;;6.72;3.80;;;;;;;19.17;92.02;95424.44;5111334;27;20495;-74
2023/07/25 00:25:10;;;;;;;5.90;3.83;;;;;;;19.16;91.94;95428.38;5110412;27;20044;-74
2023/07/25 00:27:37;;;;;;;7.18;3.78;;;;;;;19.19;92.26;95422.84;5095783;28;20040;-74
2023/07/25 00:30:06;;;;;;;5.65;3.83;;;;;;;19.24;92.17;95418.91;5099795;27;20040;-74
2023/07/25 00:32:34;;;;;;;7.53;3.70;;;;;;;19.23;90.65;95415.34;5111079;27;20054;-74
2023/07/25 00:35:00;;;;;;;9.02;3.85;;;;;;;19.23;91.09;95412.59;5104692;27;20040;-74
2023/07/25 00:37:29;;;;;;;7.78;3.78;;;;;;;19.22;91.15;95404.72;5090326;28;20036;-74
2023/07/25 00:39:55;;;;;;;9.48;4.10;;;;;;;19.21;90.70;95403.13;5107124;27;20696;-74
2023/07/25 00:42:22;;;;;;;6.65;3.95;;;;;;;19.21;90.10;95403.94;5091016;28;20051;-74
2023/07/25 00:44:48;;;;;;;6.70;3.70;;;;;;;19.17;89.28;95399.59;5092141;28;20043;-74
2023/07/25 00:47:19;;;;;;;6.32;3.28;;;;;;;19.17;89.76;95399.59;5103162;27;20062;-74
2023/07/25 00:49:46;;;;;;;5.78;3.38;;;;;;;19.17;90.48;95403.16;5111402;28;20043;-74
2023/07/25 00:52:13;;;;;;;8.32;3.67;;;;;;;19.16;90.16;95400.75;5111722;27;20044;-75
2023/07/25 00:54:45;;;;;;;9.32;4.03;;;;;;;19.14;88.97;95409.44;5108072;28;20052;-74
2023/07/25 00:57:12;;;;;;;5.85;3.60;;;;;;;19.12;89.68;95411.03;5110250;27;20040;-74
2023/07/25 00:59:39;;;;;;;8.18;3.95;;;;;;;19.09;90.08;95404.31;5102497;28;20047;-74
2023/07/25 01:02:05;;;;;;;5.57;3.40;;;;;;;19.10;89.93;95397.63;5103338;28;20052;-75
2023/07/25 01:04:33;;;;;;;6.03;3.55;;;;;;;19.11;89.37;95392.91;5093862;28;20563;-74
2023/07/25 01:07:00;;;;;;;7.25;3.60;;;;;;;19.12;89.72;95383.44;5093325;28;20040;-75
2023/07/25 01:09:41;;;;;;;6.35;3.67;;;;;;;19.06;88.90;95383.06;5100311;27;20046;-74
2023/07/25 01:12:08;;;;;;;7.72;3.63;;;;;;;19.08;89.18;95374.38;5091645;28;20046;-74
2023/07/25 01:14:36;;;;;;;4.78;3.45;;;;;;;19.06;89.47;95374.78;5090261;28;20040;-74
2023/07/25 01:17:08;;;;;;;6.57;3.40;;;;;;;19.09;88.77;95373.19;5092093;27;20044;-74
2023/07/25 01:19:39;;;;;;;5.47;3.47;;;;;;;19.04;89.02;95364.13;5110179;28;20643;-75
2023/07/25 01:22:07;;;;;;;5.35;3.33;;;;;;;19.04;89.76;95361.38;5099963;27;20043;-74
2023/07/25 01:24:35;;;;;;;6.55;3.58;;;;;;;19.03;89.32;95362.56;5102069;27;20062;-74
2023/07/25 01:27:02;;;;;;;6.85;3.53;;;;;;;19.03;89.69;95365.31;5099809;27;20048;-74
2023/07/25 01:29:28;;;;;;;5.03;3.25;;;;;;;19.03;89.99;95353.50;5094262;28;20059;-74
2023/07/25 01:31:55;;;;;;;6.95;3.13;;;;;;;19.03;90.14;95357.03;5096415;27;20043;-75
2023/07/25 01:34:21;;;;;;;7.53;3.42;;;;;;;19.01;89.08;95358.63;5108940;27;22206;-74
2023/07/25 01:36:48;;;;;;;7.15;3.50;;;;;;;19.02;89.41;95363.75;5100756;27;20063;-74
2023/07/25 01:39:14;;;;;;;6.30;3.15;;;;;;;19.03;89.77;95368.06;5104759;27;20070;-74
2023/07/25 01:41:44;;;;;;;7.55;3.63;;;;;;;19.02;89.64;95358.22;5114228;27;20418;-74
2023/07/25 01:44:12;;;;;;;6.63;3.50;;;;;;;19.02;90.00;95368.47;5116352;27;20059;-74
2023/07/25 01:46:40;;;;;;;6.50;3.47;;;;;;;19.03;88.84;95364.53;5116907;27;20059;-74
2023/07/25 01:49:06;;;;;;;6.85;3.40;;;;;;;19.00;88.49;95363.38;5107306;27;20059;-75
2023/07/25 01:51:33;;;;;;;6.35;3.58;;;;;;;19.02;89.07;95363.75;5102762;27;20047;-74
2023/07/25 01:53:59;;;;;;;7.63;3.28;;;;;;;19.00;88.95;95360.59;5096559;28;20048;-74
2023/07/25 01:56:26;;;;;;;5.05;3.35;;;;;;;18.94;88.51;95362.16;5112347;27;20399;-74
2023/07/25 01:58:54;;;;;;;7.35;3.50;;;;;;;18.92;88.93;95361.78;5108117;27;20457;-74
2023/07/25 02:01:21;;;;;;;8.57;3.58;;;;;;;18.92;88.46;95366.53;5102065;28;20406;-74
2023/07/25 02:03:48;;;;;;;7.90;3.83;;;;;;;18.91;88.14;95371.25;5096171;28;20044;-74
2023/07/25 02:06:14;;;;;;;8.48;3.75;;;;;;;18.86;88.23;95377.16;5095706;28;20138;-74
2023/07/25 02:08:41;;;;;;;8.35;3.63;;;;;;;18.84;88.62;95376.75;5100497;27;20409;-74
2023/07/25 02:11:08;;;;;;;8.77;3.83;;;;;;;18.83;88.79;95371.66;5101753;27;20040;-74
2023/07/25 02:13:35;;;;;;;6.93;3.15;;;;;;;18.84;89.48;95374.00;5096461;28;20055;-74
2023/07/25 02:16:02;;;;;;;8.25;3.63;;;;;;;18.82;89.06;95359.81;5107543;27;20050;-74
2023/07/25 02:18:29;;;;;;;9.02;3.50;;;;;;;18.79;89.21;95352.34;5111674;27;20040;-75
2023/07/25 02:20:55;;;;;;;7.55;3.95;;;;;;;18.81;88.90;95355.50;5110518;27;20040;-74
2023/07/25 02:23:22;;;;;;;7.38;3.25;;;;;;;18.85;88.08;95353.53;5116052;27;20078;-74
2023/07/25 02:25:48;;;;;;;9.32;3.85;;;;;;;18.77;88.28;95354.72;5107185;27;20044;-76
2023/07/25 02:28:15;;;;;;;8.65;3.25;;;;;;;18.75;88.74;95360.63;5097331;27;20047;-74
2023/07/25 02:30:41;;;;;;;6.05;3.80;;;;;;;18.71;88.86;95346.03;5114463;27;20495;-73
2023/07/25 02:33:10;;;;;;;7.15;3.60;;;;;;;18.75;89.87;95335.03;5110337;27;20035;-75
2023/07/25 02:35:36;;;;;;;6.40;3.65;;;;;;;18.76;91.26;95328.31;5102834;27;20495;-75
2023/07/25 02:38:03;;;;;;;5.38;3.60;;;;;;;18.74;91.61;95303.09;5097307;27;20050;-75
2023/07/25 02:40:29;;;;;;;6.45;3.90;;;;;;;18.74;91.05;95297.56;5095396;28;20032;-74
2023/07/25 02:42:56;;;;;;;5.15;2.92;;;;;;;18.76;91.19;95284.19;5095190;28;20052;-74
2023/07/25 02:45:22;;;;;;;4.97;3.63;;;;;;;18.71;89.97;95276.31;5093736;28;20063;-74
2023/07/25 02:47:49;;;;;;;9.90;3.80;;;;;;;18.69;90.42;95256.66;5094754;28;20036;-74
2023/07/25 02:50:16;;;;;;;6.80;4.00;;;;;;;18.69;89.23;95273.19;5092294;28;20052;-74
2023/07/25 02:52:43;;;;;;;7.45;3.50;;;;;;;18.64;89.13;95288.13;5099338;27;20040;-74
2023/07/25 02:55:09;;;;;;;5.88;3.42;;;;;;;18.66;89.66;95301.50;5103776;27;20043;-74
2023/07/25 02:57:36;;;;;;;7.25;3.50;;;;;;;18.67;89.80;95311.34;5099444;28;20047;-74
2023/07/25 03:00:03;;;;;;;8.98;3.92;;;;;;;18.67;90.00;95311.34;5091716;28;20119;-74
2023/07/25 03:02:29;;;;;;;5.97;3.78;;;;;;;18.63;90.79;95294.00;5106226;27;20073;-74
2023/07/25 03:04:56;;;;;;;11.85;4.03;;;;;;;18.64;90.69;95299.16;5098055;28;20039;-74
2023/07/25 03:07:24;;;;;;;6.35;3.58;;;;;;;18.62;89.20;95312.53;5095867;27;20526;-74
2023/07/25 03:09:50;;;;;;;8.27;4.35;;;;;;;18.56;89.27;95313.34;5103284;28;20035;-74
2023/07/25 03:12:17;;;;;;;7.15;3.63;;;;;;;18.57;89.62;95310.16;5101486;27;20069;-74
2023/07/25 03:14:44;;;;;;;7.03;3.55;;;;;;;18.62;89.92;95306.22;5091776;28;20055;-75
2023/07/25 03:17:10;;;;;;;6.78;3.60;;;;;;;18.60;89.80;95303.88;5108564;27;20039;-74
2023/07/25 03:19:37;;;;;;;6.18;3.53;;;;;;;18.60;90.24;95306.63;5091325;28;20051;-74
2023/07/25 03:22:04;;;;;;;8.30;3.30;;;;;;;18.59;90.74;95302.31;5091363;28;20047;-74
2023/07/25 03:24:32;;;;;;;7.22;3.85;;;;;;;18.59;89.45;95305.06;5102556;28;20046;-74
2023/07/25 03:26:59;;;;;;;6.70;3.40;;;;;;;18.59;88.80;95302.31;5103436;28;20583;-74
2023/07/25 03:29:25;;;;;;;6.70;3.65;;;;;;;18.63;88.39;95302.28;5103116;27;20040;-74
2023/07/25 03:31:52;;;;;;;8.75;3.47;;;;;;;18.65;88.68;95308.22;5105538;27;20042;-74
2023/07/25 03:34:18;;;;;;;7.53;3.90;;;;;;;18.66;88.08;95296.00;5109318;27;20039;-74
2023/07/25 03:36:45;;;;;;;8.55;3.67;;;;;;;18.67;88.05;95294.81;5106218;27;20040;-75
2023/07/25 03:39:11;;;;;;;7.93;4.10;;;;;;;18.69;87.73;95295.25;5104500;27;20473;-74
2023/07/25 03:41:39;;;;;;;8.95;4.20;;;;;;;18.62;87.63;95284.19;5111675;27;20051;-73
2023/07/25 03:44:06;;;;;;;8.00;4.07;;;;;;;18.62;87.80;95276.69;5111294;27;20039;-74
2023/07/25 03:46:32;;;;;;;6.75;3.88;;;;;;;18.63;87.45;95291.25;5112224;27;20044;-74
2023/07/25 03:48:59;;;;;;;6.03;3.50;;;;;;;18.64;87.89;95293.63;5112016;27;20039;-74
2023/07/25 03:51:25;;;;;;;4.07;2.90;;;;;;;18.61;88.14;95282.59;5108978;27;20375;-74
2023/07/25 03:53:52;;;;;;;5.38;3.42;;;;;;;18.58;88.36;95289.69;5106181;27;20039;-74
2023/07/25 03:56:18;;;;;;;6.00;3.45;;;;;;;18.54;87.58;95293.66;5107947;27;20039;-74
2023/07/25 03:58:46;;;;;;;5.10;3.60;;;;;;;18.55;87.71;95295.22;5091152;28;20063;-74
2023/07/25 04:01:13;;;;;;;8.45;3.90;;;;;;;18.53;87.62;95292.84;5090528;28;20040;-74
2023/07/25 04:03:39;;;;;;;5.55;3.20;;;;;;;18.54;87.16;95283.41;5097917;28;20390;-74
2023/07/25 04:06:06;;;;;;;8.93;3.58;;;;;;;18.55;87.06;95281.44;5096294;27;20042;-74
2023/07/25 04:08:32;;;;;;;4.28;3.00;;;;;;;18.53;86.00;95276.28;5091414;28;20044;-74
2023/07/25 04:10:59;;;;;;;5.75;3.58;;;;;;;18.57;86.43;95282.59;5090882;28;20090;-74
2023/07/25 04:13:25;;;;;;;8.38;3.58;;;;;;;18.50;86.25;95294.44;5107676;27;20046;-74
2023/07/25 04:15:53;;;;;;;7.45;3.83;;;;;;;18.54;87.04;95293.66;5111126;27;20534;-74
2023/07/25 04:18:19;;;;;;;10.10;3.50;;;;;;;18.50;86.51;95296.41;5110635;27;20044;-75
2023/07/25 04:20:46;;;;;;;7.30;3.22;;;;;;;18.51;86.46;95290.47;5110931;27;20052;-74
2023/07/25 04:23:13;;;;;;;8.23;3.78;;;;;;;18.52;85.98;95292.06;5097581;27;20598;-74
2023/07/25 04:25:39;;;;;;;6.65;3.50;;;;;;;18.49;86.19;95286.56;5110246;27;20054;-74
2023/07/25 04:28:05;;;;;;;7.15;3.40;;;;;;;18.46;84.29;95296.41;5094161;27;20593;-74
2023/07/25 04:30:32;;;;;;;5.75;3.00;;;;;;;18.39;84.91;95301.91;5093153;28;20796;-74
2023/07/25 04:33:00;;;;;;;3.78;2.75;;;;;;;18.39;84.32;95298.38;5103826;28;20044;-74
2023/07/25 04:35:26;;;;;;;7.60;3.53;;;;;;;18.39;85.44;95303.91;5098508;27;20055;-74
2023/07/25 04:37:53;;;;;;;4.82;3.17;;;;;;;18.39;84.63;95304.69;5090766;28;20040;-74
2023/07/25 04:40:19;;;;;;;8.88;3.75;;;;;;;18.33;83.68;95311.78;5099454;27;20048;-74
2023/07/25 04:42:46;;;;;;;8.50;3.72;;;;;;;18.35;83.30;95317.66;5105995;28;20036;-74
2023/07/25 04:45:12;;;;;;;4.72;3.00;;;;;;;18.33;83.20;95320.03;5096853;28;20044;-74
2023/07/25 04:47:39;;;;;;;6.78;3.60;;;;;;;18.32;83.70;95307.41;5090430;28;20153;-75
2023/07/25 04:50:07;;;;;;;6.25;3.17;;;;;;;18.32;83.43;95312.94;5097840;28;20047;-74
2023/07/25 04:52:33;;;;;;;5.75;3.20;;;;;;;18.30;83.94;95311.75;5094119;28;20044;-74
2023/07/25 04:55:00;;;;;;;4.25;3.00;;;;;;;18.37;82.79;95311.75;5110546;27;20035;-74
2023/07/25 04:57:27;;;;;;;5.25;3.20;;;;;;;18.33;82.84;95300.75;5099501;27;20043;-74
2023/07/25 04:59:53;;;;;;;5.55;3.67;;;;;;;18.29;82.68;95297.19;5090151;28;20036;-74
2023/07/25 05:02:21;;;;;;;4.47;3.17;;;;;;;18.33;83.93;95294.44;5098983;27;20039;-75
2023/07/25 05:04:47;;;;;;;4.78;3.08;;;;;;;18.31;83.36;95286.56;5110230;27;20047;-73
2023/07/25 05:07:18;;;;;;;5.70;2.90;;;;;;;18.33;82.96;95284.22;5110789;27;20036;-77
2023/07/25 05:09:44;;;;;;;5.70;3.10;;;;;;;18.35;84.41;95276.31;5099008;27;20036;-76
2023/07/25 05:12:13;;;;;;;6.28;2.92;;;;;;;18.33;83.08;95284.22;5099492;28;20536;-76
2023/07/25 05:14:39;;;;;;;5.00;2.92;;;;;;;18.25;82.37;95288.13;5112395;27;20043;-77
2023/07/25 05:17:06;;;;;;;8.65;2.83;;;;;;;18.28;82.69;95283.81;5111667;27;20491;-76
2023/07/25 05:19:33;;;;;;;6.85;3.28;;;;;;;18.24;83.64;95275.53;5092275;28;20052;-76
2023/07/25 05:22:00;;;;;;;6.68;3.70;;;;;;;18.27;83.85;95272.00;5097023;27;20054;-76
2023/07/25 05:24:28;;;;;;;6.53;3.22;;;;;;;18.28;83.38;95268.06;5092421;28;20044;-76
2023/07/25 05:26:54;;;;;;;5.90;3.50;;;;;;;18.29;83.74;95255.84;5103403;27;20044;-76
2023/07/25 05:29:21;;;;;;;4.38;3.00;;;;;;;18.32;84.33;95255.06;5096069;28;20067;-76
2023/07/25 05:31:47;;;;;;;5.55;3.22;;;;;;;18.35;84.11;95248.75;5103411;28;20046;-75
2023/07/25 05:34:14;;;;;;;5.32;3.30;;;;;;;18.35;83.90;95239.72;5102272;28;20043;-76
2023/07/25 05:36:40;;;;;;;6.35;3.42;;;;;;;18.27;82.76;95238.94;5091739;28;20122;-76
2023/07/25 05:39:07;;;;;;;4.80;3.10;;;;;;;18.25;82.20;95241.28;5095238;28;20037;-75
2023/07/25 05:41:35;;;;;;;8.88;3.40;;;;;;;18.24;82.83;95243.25;5102096;27;20042;-76
2023/07/25 05:44:01;;;;;;;7.78;3.25;;;;;;;18.23;83.34;95247.19;5106252;27;20044;-76
2023/07/25 05:46:28;;;;;;;5.85;3.20;;;;;;;18.23;83.19;95238.94;5100732;27;20055;-76
2023/07/25 05:48:54;;;;;;;5.53;3.20;;;;;;;18.25;84.20;95233.03;5094336;28;20044;-76
2023/07/25 05:51:21;;;;;;;5.32;3.00;;;;;;;18.22;83.08;95220.06;5100122;27;20515;-77
2023/07/25 05:53:47;;;;;;;4.35;3.10;;;;;;;18.23;83.53;95214.13;5089288;28;20051;-76
2023/07/25 05:56:14;;;;;;;7.15;3.30;;;;;;;18.25;82.71;95214.50;5087628;28;20671;-76
2023/07/25 05:58:42;;;;;;;5.65;2.90;;;;;;;18.26;82.88;95201.53;5100175;27;20169;-76
2023/07/25 06:01:08;;;;;;;8.10;3.65;;;;;;;18.26;82.98;95188.53;5094044;28;20414;-76
2023/07/25 06:03:35;;;;;;;4.72;2.80;;;;;;;18.25;82.46;95172.41;5096454;28;20043;-76
2023/07/25 06:06:01;;;;;;;5.40;3.22;;;;;;;18.24;81.81;95166.09;5087299;28;20431;-75
2023/07/25 06:08:28;;;;;;;8.38;3.38;;;;;;;18.27;82.19;95153.53;5098885;27;20048;-74
2023/07/25 06:10:54;;;;;;;5.70;2.85;;;;;;;18.26;82.82;95151.91;5090077;28;20562;-74
2023/07/25 06:13:21;;;;;;;6.45;2.90;;;;;;;18.26;83.08;95140.91;5089315;28;20510;-76
2023/07/25 06:15:50;;;;;;;5.10;3.15;;;;;;;18.29;82.42;95133.81;5097152;27;20040;-75
2023/07/25 06:18:16;;;;;;;4.47;3.13;;;;;;;18.30;82.71;95129.88;5090961;28;20501;-75
2023/07/25 06:20:43;;;;;;;5.70;2.90;;;;;;;18.32;82.60;95133.78;5103734;27;20032;-76
2023/07/25 06:23:09;;;;;;;4.93;2.75;;;;;;;18.35;82.30;95122.00;5096983;28;20040;-76
2023/07/25 06:25:36;;;;;;;6.82;3.28;;;;;;;18.37;82.19;95129.84;5108635;27;20049;-77
2023/07/25 06:28:04;;;;;;;7.00;3.22;;;;;;;18.37;83.33;95125.13;5098758;27;20052;-76
2023/07/25 06:30:31;;;;;;;6.93;3.03;;;;;;;18.37;82.75;95114.09;5103555;27;20564;-76
2023/07/25 06:32:59;;;;;;;6.07;3.08;;;;;;;18.30;83.13;95094.84;5108287;28;20051;-75
2023/07/25 06:35:25;;;;;;;4.90;2.70;;;;;;;18.34;83.13;95092.88;5091623;28;20131;-77
2023/07/25 06:37:52;;;;;;;5.43;2.88;;;;;;;18.36;82.97;95089.69;5097391;28;20040;-75
2023/07/25 06:40:19;;;;;;;4.22;2.75;;;;;;;18.38;83.91;95099.16;5103829;27;20051;-76
2023/07/25 06:42:45;;;;;;;8.07;3.13;;;;;;;18.42;82.52;95121.97;5092144;28;20051;-75
2023/07/25 06:45:12;;;;;;;5.28;3.03;;;;;;;18.43;82.52;95137.34;5107926;27;20446;-76
2023/07/25 06:47:38;;;;;;;4.72;2.55;;;;;;;18.45;81.51;95143.22;5092978;27;20048;-76
2023/07/25 06:50:07;;;;;;;14.57;10.40;;;;;;;18.46;81.81;95150.31;5091417;28;20051;-75
2023/07/25 06:52:34;;;;;;;5.65;3.25;;;;;;;18.47;82.06;95143.59;5091775;28;20056;-75
2023/07/25 06:55:00;;;;;;;4.70;2.80;;;;;;;18.51;81.62;95133.34;5097119;28;20073;-75
2023/07/25 06:57:28;;;;;;;3.90;2.50;;;;;;;18.57;81.59;95130.97;5101838;27;20044;-74
2023/07/25 06:59:55;;;;;;;4.82;2.95;;;;;;;18.62;81.86;95146.31;5092092;28;20040;-75
2023/07/25 07:02:22;;;;;;;4.55;2.63;;;;;;;18.57;80.81;95157.75;5091876;28;20060;-76
2023/07/25 07:04:48;;;;;;;4.28;3.03;;;;;;;18.55;80.28;95162.91;5109435;27;20054;-76
2023/07/25 07:07:16;;;;;;;4.30;2.92;;;;;;;18.56;80.69;95172.72;5092034;28;20052;-76
2023/07/25 07:09:43;;;;;;;4.03;2.80;;;;;;;18.55;80.45;95176.69;5094894;28;20158;-75
2023/07/25 07:12:09;;;;;;;7.80;3.47;;;;;;;18.65;78.60;95178.63;5097505;28;20047;-75
2023/07/25 07:14:36;;;;;;;5.10;2.80;;;;;;;18.60;79.05;95182.56;5091410;28;20048;-75
2023/07/25 07:17:03;;;;;;;6.60;2.80;;;;;;;18.60;79.83;95198.31;5091014;28;20059;-74
2023/07/25 07:19:29;;;;;;;4.28;2.80;;;;;;;18.58;79.86;95206.19;5104449;28;20047;-74
2023/07/25 07:21:56;;;;;;;4.32;2.80;;;;;;;18.62;80.69;95207.75;5101488;27;20040;-74
2023/07/25 07:24:23;;;;;;;4.80;2.80;;;;;;;18.66;81.51;95214.06;5104017;28;20056;-74
2023/07/25 07:26:50;;;;;;;3.70;2.78;;;;;;;18.71;81.29;95215.66;5091251;28;20429;-75
2023/07/25 07:29:16;;;;;;;5.10;3.03;;;;;;;18.72;80.13;95223.53;5092046;28;20487;-75
2023/07/25 07:31:43;;;;;;;4.18;2.50;;;;;;;18.74;80.08;95228.63;5100801;27;20059;-74
2023/07/25 07:34:10;;;;;;;3.83;2.50;;;;;;;18.74;80.01;95225.88;5094505;28;20464;-76
2023/07/25 07:36:37;;;;;;;4.72;2.80;;;;;;;18.78;80.09;95226.66;5089508;28;20587;-74
2023/07/25 07:39:04;;;;;;;4.22;2.75;;;;;;;18.77;80.30;95236.13;5088499;28;20051;-74
2023/07/25 07:41:31;;;;;;;6.75;2.70;;;;;;;18.80;78.90;95229.81;5106622;27;20051;-73
2023/07/25 07:43:58;;;;;;;7.13;2.67;;;;;;;18.73;79.78;95216.03;5104810;27;20047;-74
2023/07/25 07:46:26;;;;;;;5.63;2.75;;;;;;;18.72;80.74;95219.97;5088193;28;20044;-74
2023/07/25 07:48:53;;;;;;;6.43;2.65;;;;;;;18.65;79.61;95219.97;5101463;27;20043;-76
2023/07/25 07:51:19;;;;;;;5.30;2.95;;;;;;;18.72;80.59;95219.97;5093051;28;20051;-75
2023/07/25 07:53:46;;;;;;;4.45;2.78;;;;;;;18.76;79.99;95224.31;5100061;27;20130;-75
2023/07/25 07:56:13;;;;;;;6.45;2.83;;;;;;;18.83;80.20;95217.97;5093780;28;20048;-75
2023/07/25 07:58:40;;;;;;;4.25;2.63;;;;;;;18.84;79.85;95214.03;5088934;28;20040;-75
2023/07/25 08:01:14;;;;;;;5.28;2.67;;;;;;;18.89;79.79;95216.38;5087987;28;20048;-75
2023/07/25 08:03:40;;;;;;;6.82;3.20;;;;;;;18.93;79.37;95219.13;5105490;27;20073;-75
2023/07/25 08:06:07;;;;;;;6.05;2.90;;;;;;;18.98;79.53;95225.03;5102228;27;20043;-77
2023/07/25 08:08:33;;;;;;;6.28;2.55;;;;;;;19.00;80.25;95224.59;5091618;28;20044;-76
2023/07/25 08:11:00;;;;;;;5.53;3.03;;;;;;;19.03;80.15;95238.41;5088763;28;20531;-76
2023/07/25 08:13:26;;;;;;;6.47;2.65;;;;;;;18.98;79.84;95238.81;5088323;28;20047;-76
2023/07/25 08:15:54;;;;;;;4.20;2.95;;;;;;;18.86;79.84;95242.00;5088798;28;20503;-75
2023/07/25 08:18:20;;;;;;;5.03;2.85;;;;;;;18.80;79.84;95238.09;5088523;28;20048;-76
2023/07/25 08:20:47;;;;;;;6.57;2.97;;;;;;;18.71;80.87;95244.00;5105520;27;20058;-76
2023/07/25 08:23:14;;;;;;;4.97;2.97;;;;;;;18.73;80.84;95238.88;5088308;28;20055;-75
2023/07/25 08:25:41;;;;;;;4.20;2.47;;;;;;;18.76;81.81;95234.56;5090566;28;20066;-74
2023/07/25 08:28:08;;;;;;;5.63;3.22;;;;;;;18.80;82.46;95220.75;5092919;27;20040;-75
2023/07/25 08:30:34;;;;;;;5.18;3.05;;;;;;;18.89;82.78;95221.09;5099194;28;20048;-75
2023/07/25 08:33:02;;;;;;;5.28;3.30;;;;;;;18.99;81.31;95221.06;5088241;28;20036;-75
2023/07/25 08:35:29;;;;;;;6.88;3.25;;;;;;;18.98;81.13;95215.97;5088108;28;20463;-74
2023/07/25 08:37:55;;;;;;;6.35;3.45;;;;;;;19.07;81.12;95210.03;5087271;28;20047;-75
2023/07/25 08:40:22;;;;;;;6.13;3.67;;;;;;;19.20;80.74;95209.16;5087279;28;20048;-75
2023/07/25 08:42:50;;;;;;;5.90;3.20;;;;;;;19.32;80.75;95216.22;5088189;28;20061;-74
2023/07/25 08:45:19;;;;;;;6.00;3.38;;;;;;;19.35;79.95;95218.16;5087399;28;20051;-75
2023/07/25 08:47:46;;;;;;;7.22;3.70;;;;;;;19.24;81.07;95225.72;5087943;28;20040;-75
2023/07/25 08:50:16;;;;;;;6.97;3.28;;;;;;;19.30;80.68;95224.09;5087439;28;20586;-76
2023/07/25 08:52:49;;;;;;;7.03;3.58;;;;;;;19.28;80.71;95221.75;5087938;28;20044;-75
2023/07/25 08:55:16;;;;;;;5.25;3.33;;;;;;;19.21;82.55;95227.31;5090501;28;20051;-76
2023/07/25 08:57:43;;;;;;;8.20;3.80;;;;;;;19.12;81.78;95228.94;5105083;27;20064;-75
2023/07/25 09:00:13;;;;;;;9.63;3.55;;;;;;;19.16;82.08;95224.97;5087468;28;20063;-74
2023/07/25 09:02:40;;;;;;;5.45;3.22;;;;;;;19.13;82.97;95231.28;5088096;28;20047;-75
2023/07/25 09:05:07;;;;;;;7.25;3.65;;;;;;;19.18;82.11;95227.31;5087653;28;20036;-75
2023/07/25 09:07:35;;;;;;;5.05;3.00;;;;;;;19.20;81.51;95235.97;5088148;28;20047;-75
2023/07/25 09:10:02;;;;;;;4.90;3.13;;;;;;;19.16;82.25;95243.47;5087332;28;20040;-74
2023/07/25 09:12:29;;;;;;;5.70;3.05;;;;;;;19.11;83.31;95227.34;5087368;28;20060;-75
2023/07/25 09:14:56;;;;;;;4.90;2.67;;;;;;;19.12;83.55;95234.44;5087650;28;20499;-75
2023/07/25 09:17:23;;;;;;;5.28;2.80;;;;;;;19.08;84.41;95244.69;5087382;28;20126;-76
2023/07/25 09:19:49;;;;;;;3.97;2.50;;;;;;;19.06;82.53;95252.59;5098363;28;20503;-76
2023/07/25 09:22:29;;;;;;;5.20;2.42;;;;;;;18.78;81.88;95252.25;5107352;27;20052;-76
2023/07/25 09:24:57;;;;;;;4.18;2.40;;;;;;;18.58;82.25;95261.34;5104655;27;20048;-74
2023/07/25 09:27:25;;;;;;;3.80;2.22;;;;;;;18.46;82.13;95255.03;5086910;28;20052;-75
2023/07/25 09:29:52;;;;;;;6.68;3.08;;;;;;;18.49;81.57;95246.00;5087011;28;20048;-74
2023/07/25 09:32:21;;;;;;;3.83;2.35;;;;;;;18.55;79.64;95240.09;5092884;27;20048;-74
2023/07/25 09:34:54;;;;;;;4.53;2.30;;;;;;;18.55;79.47;95246.38;5099342;27;20120;-75
2023/07/25 09:37:21;;;;;;;4.18;2.00;;;;;;;18.59;79.74;95240.88;5107125;27;20070;-75
2023/07/25 09:39:47;;;;;;;4.95;1.90;;;;;;;18.54;77.58;95233.00;5098363;27;20052;-76
2023/07/25 09:42:15;;;;;;;4.68;1.98;;;;;;;18.47;79.13;95237.31;5086975;28;20044;-76
2023/07/25 09:44:47;;;;;;;4.78;2.30;;;;;;;18.39;77.95;95222.00;5087532;28;20044;-75
2023/07/25 09:47:14;;;;;;;3.85;2.30;;;;;;;18.44;77.27;95218.84;5092182;27;20077;-74
2023/07/25 09:49:47;;;;;;;3.45;2.28;;;;;;;18.38;75.86;95230.66;5100489;28;20067;-75
2023/07/25 09:52:14;;;;;;;4.22;2.33;;;;;;;18.34;76.93;95221.59;5104616;27;20067;-75
2023/07/25 09:54:41;;;;;;;3.25;2.20;;;;;;;18.36;78.26;95230.25;5098423;28;20047;-75
2023/07/25 09:57:08;;;;;;;3.50;2.30;;;;;;;18.41;77.61;95236.16;5098540;27;20050;-75
2023/07/25 09:59:37;;;;;;;4.38;2.00;;;;;;;18.54;77.18;95227.50;5091310;28;20063;-74
2023/07/25 10:02:04;;;;;;;3.53;2.50;;;;;;;18.60;76.49;95231.41;5090663;28;20051;-75
2023/07/25 10:04:31;;;;;;;5.57;2.20;;;;;;;18.51;76.81;95235.34;5091409;28;20043;-75
2023/07/25 10:07:00;;;;;;;3.00;1.92;;;;;;;18.32;75.61;95244.03;5091226;28;20043;-74
2023/07/25 10:09:26;;;;;;;9.95;2.08;;;;;;;18.20;74.90;95242.47;5090697;28;20040;-75
2023/07/25 10:11:53;;;;;;;3.35;2.17;;;;;;;18.13;75.56;95241.69;5091060;28;20200;-74
2023/07/25 10:14:20;;;;;;;3.78;2.20;;;;;;;18.15;76.68;95239.31;5090707;28;20058;-75
2023/07/25 10:16:49;;;;;;;4.05;2.38;;;;;;;18.27;76.06;95236.19;5090972;28;20050;-75
2023/07/25 10:19:16;;;;;;;4.65;2.30;;;;;;;18.36;75.67;95233.78;5093044;28;20044;-74
2023/07/25 10:21:48;;;;;;;4.78;2.20;;;;;;;18.48;76.05;95241.69;5090408;28;20048;-76
2023/07/25 10:24:14;;;;;;;3.15;1.80;;;;;;;18.47;74.92;95250.31;5090996;28;20048;-76
2023/07/25 10:26:53;;;;;;;3.17;1.85;;;;;;;18.47;75.76;95245.59;5094666;28;20058;-76
2023/07/25 10:29:37;;;;;;;3.33;2.00;;;;;;;18.55;74.28;95259.38;5095857;27;20051;-75
2023/07/25 10:32:06;;;;;;;3.85;2.20;;;;;;;18.47;74.37;95253.84;5102266;27;20047;-74
2023/07/25 10:34:50;;;;;;;3.97;1.70;;;;;;;18.36;73.41;95250.34;5103624;28;20066;-74
2023/07/25 10:37:23;;;;;;;5.05;1.80;;;;;;;18.40;73.05;95253.88;5098551;27;20062;-74
2023/07/25 10:40:04;;;;;;;3.10;1.88;;;;;;;18.43;72.89;95244.84;5099883;27;20047;-74
2023/07/25 10:42:45;;;;;;;3.40;1.80;;;;;;;18.46;74.16;95244.03;5094977;28;20036;-74
2023/07/25 10:45:22;;;;;;;3.50;2.05;;;;;;;18.59;75.06;95235.34;5089833;28;20499;-73
2023/07/25 10:47:50;;;;;;;4.35;2.00;;;;;;;18.60;70.99;95236.94;5091009;28;20036;-74
2023/07/25 10:50:20;;;;;;;2.42;1.52;;;;;;;18.51;71.22;95243.63;5094253;27;20384;-74
2023/07/25 10:52:50;;;;;;;3.92;1.83;;;;;;;18.50;71.47;95244.81;5110886;27;20128;-75
2023/07/25 10:55:17;;;;;;;2.92;1.63;;;;;;;18.66;70.43;95243.59;5110562;27;20043;-76
2023/07/25 10:58:10;;;;;;;2.70;1.73;;;;;;;18.72;70.55;95244.81;5103718;27;20071;-77
2023/07/25 11:00:38;;;;;;;5.28;1.90;;;;;;;18.83;69.74;95234.53;5107395;27;20043;-76
2023/07/25 11:03:31;;;;;;;2.95;1.70;;;;;;;18.96;69.24;95227.41;5091156;28;20047;-76
2023/07/25 11:06:31;;;;;;;4.38;1.90;;;;;;;19.12;67.25;95239.97;5090562;28;20478;-76
2023/07/25 11:08:57;;;;;;;2.90;1.98;;;;;;;19.20;66.34;95233.22;5092124;28;20669;-75
2023/07/25 11:11:24;;;;;;;4.72;1.98;;;;;;;19.14;67.10;95237.56;5109915;27;20047;-76
2023/07/25 11:13:52;;;;;;;2.60;1.63;;;;;;;19.17;67.91;95225.75;5100928;27;20050;-75
2023/07/25 11:16:22;;;;;;;3.60;1.88;;;;;;;19.32;66.16;95230.03;5089058;28;20040;-73
2023/07/25 11:18:51;;;;;;;2.50;1.65;;;;;;;19.52;67.32;95225.56;5098588;27;20041;-74
2023/07/25 11:21:18;;;;;;;3.13;1.60;;;;;;;19.73;64.01;95229.41;5096241;27;20048;-75
2023/07/25 11:23:45;;;;;;;2.97;1.75;;;;;;;19.71;64.44;95221.53;5089589;28;20055;-74
2023/07/25 11:26:12;;;;;;;3.60;2.15;;;;;;;19.72;65.02;95222.31;5093314;28;20052;-76
2023/07/25 11:28:39;;;;;;;3.63;1.80;;;;;;;19.79;64.44;95222.28;5089065;28;20044;-75
2023/07/25 11:31:05;;;;;;;4.68;1.92;;;;;;;19.79;64.50;95211.25;5097932;28;20047;-77
2023/07/25 11:33:37;;;;;;;3.33;1.73;;;;;;;19.83;64.94;95206.44;5097259;28;20070;-77
2023/07/25 11:36:05;;;;;;;2.33;1.58;;;;;;;19.83;64.86;95205.66;5098835;28;20671;-75